createdAt,value
2018-08-31T00:03:14.619Z,13.40
2018-08-31T00:05:58.067Z,13.30
2018-08-31T00:08:37.630Z,13.30
2018-08-31T00:11:30.249Z,13.30
2018-08-31T00:13:58.630Z,13.20
2018-08-31T00:16:26.988Z,13.20
2018-08-31T00:18:55.377Z,13.20
2018-08-31T00:21:23.712Z,13.20
2018-08-31T00:26:04.953Z,13.20
2018-08-31T00:28:44.874Z,13.20
2018-08-31T00:33:42.208Z,13.10
2018-08-31T00:36:22.013Z,13.10
2018-08-31T00:38:59.300Z,13.00
2018-08-31T00:41:36.637Z,13.00
2018-08-31T00:46:16.320Z,13.00
2018-08-31T00:48:44.674Z,12.90
2018-08-31T00:51:13.045Z,12.90
2018-08-31T00:53:41.405Z,12.80
2018-08-31T00:56:09.765Z,12.80
2018-08-31T00:58:38.101Z,12.80
2018-08-31T01:01:06.476Z,12.80
2018-08-31T01:03:34.972Z,12.70
2018-08-31T01:06:03.348Z,12.70
2018-08-31T01:08:31.712Z,12.70
2018-08-31T01:11:00.041Z,12.70
2018-08-31T01:13:28.424Z,12.60
2018-08-31T01:15:56.769Z,12.60
2018-08-31T01:18:25.137Z,12.60
2018-08-31T01:20:53.482Z,12.60
2018-08-31T01:23:21.847Z,12.60
2018-08-31T01:25:50.221Z,12.50
2018-08-31T01:28:18.597Z,12.50
2018-08-31T01:30:46.984Z,12.50
2018-08-31T01:33:15.455Z,12.50
2018-08-31T01:35:43.753Z,12.50
2018-08-31T01:38:12.121Z,12.50
2018-08-31T01:40:40.497Z,12.40
2018-08-31T01:43:08.869Z,12.40
2018-08-31T01:45:37.260Z,12.40
2018-08-31T01:48:05.634Z,12.40
2018-08-31T01:50:33.977Z,12.40
2018-08-31T01:53:02.436Z,12.40
2018-08-31T01:55:30.799Z,12.40
2018-08-31T01:58:00.505Z,12.40
2018-08-31T02:00:28.940Z,12.40
2018-08-31T02:02:57.335Z,12.40
2018-08-31T02:05:25.901Z,12.40
2018-08-31T02:07:54.280Z,12.40
2018-08-31T02:10:22.649Z,12.40
2018-08-31T02:12:51.036Z,12.30
2018-08-31T02:15:19.396Z,12.30
2018-08-31T02:17:47.773Z,12.30
2018-08-31T02:20:16.145Z,12.30
2018-08-31T02:22:44.505Z,12.20
2018-08-31T02:25:12.892Z,12.20
2018-08-31T02:27:41.389Z,12.20
2018-08-31T02:30:09.918Z,12.10
2018-08-31T02:32:38.293Z,12.10
2018-08-31T02:35:06.700Z,12.10
2018-08-31T02:37:35.054Z,12.00
2018-08-31T02:40:03.520Z,12.00
2018-08-31T02:42:31.897Z,12.00
2018-08-31T02:45:00.292Z,12.00
2018-08-31T02:47:28.649Z,11.90
2018-08-31T02:49:57.029Z,11.90
2018-08-31T02:52:25.367Z,11.90
2018-08-31T02:54:53.740Z,11.80
2018-08-31T02:57:22.085Z,11.80
2018-08-31T02:59:50.484Z,11.80
2018-08-31T03:02:18.840Z,11.80
2018-08-31T03:04:47.229Z,11.80
2018-08-31T03:07:15.796Z,11.80
2018-08-31T03:09:44.164Z,11.80
2018-08-31T03:12:12.556Z,11.70
2018-08-31T03:14:40.941Z,11.70
2018-08-31T03:17:09.324Z,11.70
2018-08-31T03:19:37.735Z,11.70
2018-08-31T03:22:06.103Z,11.70
2018-08-31T03:24:34.456Z,11.70
2018-08-31T03:27:02.861Z,11.70
2018-08-31T03:29:31.215Z,11.70
2018-08-31T03:31:59.625Z,11.60
2018-08-31T03:34:28.013Z,11.60
2018-08-31T03:36:56.404Z,11.60
2018-08-31T03:39:24.741Z,11.60
2018-08-31T03:41:53.105Z,11.50
2018-08-31T03:44:21.440Z,11.50
2018-08-31T03:46:49.811Z,11.50
2018-08-31T03:49:18.179Z,11.50
2018-08-31T03:51:46.552Z,11.50
2018-08-31T03:54:14.901Z,11.50
2018-08-31T03:56:43.289Z,11.50
2018-08-31T03:59:11.628Z,11.40
2018-08-31T04:01:40.000Z,11.50
2018-08-31T04:04:08.324Z,11.50
2018-08-31T04:06:36.697Z,11.50
2018-08-31T04:09:06.901Z,11.40
2018-08-31T04:11:35.276Z,11.40
2018-08-31T04:14:03.700Z,11.50
2018-08-31T04:16:32.068Z,11.50
2018-08-31T04:19:04.645Z,11.50
2018-08-31T04:21:33.012Z,11.50
2018-08-31T04:24:01.345Z,11.50
2018-08-31T04:26:29.745Z,11.50
2018-08-31T04:28:58.084Z,11.50
2018-08-31T04:31:26.460Z,11.50
2018-08-31T04:33:54.902Z,11.50
2018-08-31T04:36:23.256Z,11.60
2018-08-31T04:38:51.604Z,11.60
2018-08-31T04:41:20.029Z,11.60
2018-08-31T04:43:48.390Z,11.60
2018-08-31T04:46:16.716Z,11.60
2018-08-31T04:48:45.089Z,11.70
2018-08-31T04:51:13.429Z,11.70
2018-08-31T04:53:41.914Z,11.70
2018-08-31T04:56:10.252Z,11.70
2018-08-31T04:58:38.617Z,11.70
2018-08-31T05:01:06.979Z,11.70
2018-08-31T05:03:35.385Z,11.70
2018-08-31T05:06:03.777Z,11.70
2018-08-31T05:08:32.157Z,11.70
2018-08-31T05:11:00.558Z,11.70
2018-08-31T05:13:28.968Z,11.70
2018-08-31T05:15:57.318Z,11.70
2018-08-31T05:18:25.712Z,11.70
2018-08-31T05:20:54.049Z,11.70
2018-08-31T05:23:22.438Z,11.70
2018-08-31T05:25:50.889Z,11.70
2018-08-31T05:28:19.265Z,11.80
2018-08-31T05:30:47.624Z,11.80
2018-08-31T05:33:16.141Z,11.90
2018-08-31T05:35:44.484Z,12.00
2018-08-31T05:38:12.869Z,12.10
2018-08-31T05:40:41.292Z,12.20
2018-08-31T05:43:09.686Z,12.30
2018-08-31T05:45:38.037Z,12.40
2018-08-31T05:48:06.509Z,12.50
2018-08-31T05:50:34.865Z,12.70
2018-08-31T05:53:03.376Z,12.80
2018-08-31T05:55:31.932Z,12.80
2018-08-31T05:58:00.344Z,12.90
2018-08-31T06:00:28.965Z,12.90
2018-08-31T06:02:57.588Z,12.90
2018-08-31T06:05:26.253Z,13.00
2018-08-31T06:07:54.612Z,13.00
2018-08-31T06:10:22.960Z,13.00
2018-08-31T06:12:51.337Z,13.10
2018-08-31T06:15:19.705Z,13.20
2018-08-31T06:17:48.172Z,13.10
2018-08-31T06:20:16.558Z,13.10
2018-08-31T06:22:44.916Z,13.10
2018-08-31T06:25:13.297Z,13.20
2018-08-31T06:27:41.726Z,13.20
2018-08-31T06:30:10.103Z,13.20
2018-08-31T06:32:38.542Z,13.30
2018-08-31T06:35:06.973Z,13.30
2018-08-31T06:37:35.326Z,13.30
2018-08-31T06:40:03.754Z,13.30
2018-08-31T06:42:32.144Z,13.30
2018-08-31T06:45:00.533Z,13.30
2018-08-31T06:47:28.881Z,13.30
2018-08-31T06:49:57.261Z,13.40
2018-08-31T06:52:25.629Z,13.30
2018-08-31T06:54:54.102Z,13.30
2018-08-31T06:57:22.666Z,13.40
2018-08-31T06:59:51.045Z,13.40
2018-08-31T07:02:19.383Z,13.50
2018-08-31T07:04:47.762Z,13.60
2018-08-31T07:07:16.152Z,13.70
2018-08-31T07:09:44.532Z,13.70
2018-08-31T07:12:12.935Z,13.80
2018-08-31T07:14:41.337Z,13.80
2018-08-31T07:17:09.691Z,13.90
2018-08-31T07:19:38.333Z,13.90
2018-08-31T07:22:06.732Z,13.90
2018-08-31T07:24:35.101Z,14.10
2018-08-31T07:27:03.485Z,14.20
2018-08-31T07:29:31.880Z,14.20
2018-08-31T07:32:00.253Z,14.30
2018-08-31T07:34:28.649Z,14.40
2018-08-31T07:36:57.009Z,14.50
2018-08-31T07:39:25.406Z,14.50
2018-08-31T07:41:53.778Z,14.60
2018-08-31T07:44:22.180Z,14.60
2018-08-31T07:46:50.693Z,14.70
2018-08-31T07:49:19.097Z,14.70
2018-08-31T07:51:47.478Z,14.80
2018-08-31T07:54:15.875Z,14.90
2018-08-31T07:56:44.457Z,14.90
2018-08-31T07:59:12.893Z,14.90
2018-08-31T08:01:41.254Z,14.90
2018-08-31T08:04:09.633Z,15.00
2018-08-31T08:06:38.005Z,15.10
2018-08-31T08:09:08.129Z,15.20
2018-08-31T08:11:36.606Z,15.30
2018-08-31T08:14:05.030Z,15.40
2018-08-31T08:16:33.402Z,15.50
2018-08-31T08:19:01.817Z,15.60
2018-08-31T08:21:30.485Z,15.80
2018-08-31T08:23:58.870Z,15.80
2018-08-31T08:26:27.276Z,15.90
2018-08-31T08:28:55.620Z,15.90
2018-08-31T08:31:23.993Z,15.90
2018-08-31T08:33:52.385Z,15.90
2018-08-31T08:36:20.788Z,16.00
2018-08-31T08:38:49.141Z,16.10
2018-08-31T08:41:17.549Z,16.10
2018-08-31T08:43:46.037Z,16.20
2018-08-31T08:46:14.449Z,16.20
2018-08-31T08:48:42.974Z,16.20
2018-08-31T08:51:11.265Z,16.30
2018-08-31T08:53:39.625Z,16.30
2018-08-31T08:56:08.187Z,16.30
2018-08-31T08:58:36.565Z,16.30
2018-08-31T09:01:04.977Z,16.30
2018-08-31T09:03:33.334Z,16.30
2018-08-31T09:06:01.712Z,16.30
2018-08-31T09:08:30.060Z,16.40
2018-08-31T09:10:58.436Z,16.40
2018-08-31T09:13:26.861Z,16.40
2018-08-31T09:15:55.241Z,16.40
2018-08-31T09:18:26.804Z,16.50
2018-08-31T09:20:55.849Z,16.50
2018-08-31T09:23:24.401Z,16.60
2018-08-31T09:25:53.342Z,16.70
2018-08-31T09:28:21.784Z,16.80
2018-08-31T09:30:50.212Z,16.90
2018-08-31T09:33:18.633Z,17.10
2018-08-31T09:35:47.093Z,17.10
2018-08-31T09:38:15.513Z,17.20
2018-08-31T09:40:43.868Z,17.20
2018-08-31T09:43:12.208Z,17.20
2018-08-31T09:45:40.613Z,17.20
2018-08-31T09:48:08.961Z,17.20
2018-08-31T09:50:37.369Z,17.20
2018-08-31T09:53:05.764Z,17.30
2018-08-31T09:55:34.144Z,17.30
2018-08-31T09:58:02.553Z,17.50
2018-08-31T10:00:36.514Z,17.60
2018-08-31T10:03:05.952Z,17.60
2018-08-31T10:05:34.410Z,17.70
2018-08-31T10:08:02.794Z,17.70
2018-08-31T10:10:31.166Z,17.80
2018-08-31T10:12:59.857Z,17.90
2018-08-31T10:15:28.244Z,18.00
2018-08-31T10:17:56.647Z,18.10
2018-08-31T10:20:25.029Z,18.20
2018-08-31T10:22:53.421Z,18.30
2018-08-31T10:25:21.785Z,18.40
2018-08-31T10:27:50.272Z,18.60
2018-08-31T10:30:18.660Z,18.70
2018-08-31T10:32:47.079Z,18.70
2018-08-31T10:35:15.461Z,18.80
2018-08-31T10:37:43.880Z,19.00
2018-08-31T10:40:12.296Z,19.00
2018-08-31T10:42:40.682Z,19.10
2018-08-31T10:45:09.366Z,19.20
2018-08-31T10:47:39.595Z,19.30
2018-08-31T10:50:09.520Z,19.50
2018-08-31T10:52:38.898Z,19.60
2018-08-31T10:55:08.040Z,19.80
2018-08-31T10:57:37.376Z,19.80
2018-08-31T11:00:06.570Z,19.60
2018-08-31T11:02:35.028Z,19.50
2018-08-31T11:05:03.491Z,19.50
2018-08-31T11:07:32.083Z,19.40
2018-08-31T11:10:00.498Z,19.30
2018-08-31T11:12:28.914Z,19.30
2018-08-31T11:14:57.325Z,19.50
2018-08-31T11:17:25.725Z,19.50
2018-08-31T11:19:54.312Z,19.50
2018-08-31T11:22:22.717Z,19.60
2018-08-31T11:24:51.121Z,19.70
2018-08-31T11:27:19.556Z,19.70
2018-08-31T11:29:48.261Z,19.60
2018-08-31T11:32:16.661Z,19.60
2018-08-31T11:34:45.141Z,19.50
2018-08-31T11:37:13.570Z,19.60
2018-08-31T11:39:41.945Z,19.80
2018-08-31T11:42:10.442Z,19.90
2018-08-31T11:44:38.820Z,20.00
2018-08-31T11:47:07.239Z,19.90
2018-08-31T11:49:35.737Z,19.80
2018-08-31T11:52:04.151Z,19.80
2018-08-31T11:54:32.602Z,19.70
2018-08-31T11:57:01.036Z,19.60
2018-08-31T11:59:29.413Z,19.60
2018-08-31T12:01:59.936Z,19.60
2018-08-31T12:04:28.333Z,19.70
2018-08-31T12:06:56.708Z,19.80
2018-08-31T12:09:25.102Z,20.00
2018-08-31T12:11:53.471Z,20.10
2018-08-31T12:14:21.877Z,20.20
2018-08-31T12:16:50.286Z,20.20
2018-08-31T12:19:18.721Z,20.20
2018-08-31T12:21:47.103Z,20.10
2018-08-31T12:24:15.512Z,20.10
2018-08-31T12:26:43.927Z,20.10
2018-08-31T12:29:12.336Z,20.00
2018-08-31T12:31:40.717Z,20.10
2018-08-31T12:34:09.111Z,20.30
2018-08-31T12:36:37.497Z,20.40
2018-08-31T12:39:07.971Z,20.40
2018-08-31T12:41:36.356Z,20.30
2018-08-31T12:44:04.802Z,20.20
2018-08-31T12:46:33.165Z,20.20
2018-08-31T12:49:01.614Z,20.10
2018-08-31T12:51:29.996Z,20.10
2018-08-31T12:53:58.406Z,20.10
2018-08-31T12:56:26.789Z,20.20
2018-08-31T12:58:55.235Z,20.20
2018-08-31T13:01:23.637Z,20.30
2018-08-31T13:03:52.047Z,20.30
2018-08-31T13:06:20.729Z,20.30
2018-08-31T13:08:49.145Z,20.40
2018-08-31T13:11:17.524Z,20.40
2018-08-31T13:13:45.928Z,20.50
2018-08-31T13:16:14.329Z,20.60
2018-08-31T13:18:42.748Z,20.60
2018-08-31T13:21:11.145Z,20.70
2018-08-31T13:23:39.589Z,20.80
2018-08-31T13:26:08.007Z,20.90
2018-08-31T13:28:36.453Z,20.80
2018-08-31T13:31:04.826Z,20.80
2018-08-31T13:33:33.221Z,20.80
2018-08-31T13:36:01.617Z,20.70
2018-08-31T13:38:30.042Z,20.50
2018-08-31T13:40:58.534Z,20.40
2018-08-31T13:43:26.988Z,20.20
2018-08-31T13:45:55.399Z,20.00
2018-08-31T13:48:23.782Z,19.80
2018-08-31T13:50:52.162Z,19.60
2018-08-31T13:53:20.561Z,19.60
2018-08-31T13:55:48.995Z,19.60
2018-08-31T13:58:17.503Z,19.70
2018-08-31T14:00:45.832Z,19.80
2018-08-31T14:03:14.232Z,19.90
2018-08-31T14:05:42.645Z,20.00
2018-08-31T14:08:11.150Z,20.10
2018-08-31T14:10:39.551Z,20.10
2018-08-31T14:13:07.927Z,20.20
2018-08-31T14:15:36.328Z,20.20
2018-08-31T14:18:04.702Z,20.20
2018-08-31T14:20:33.102Z,20.30
2018-08-31T14:23:01.479Z,20.30
2018-08-31T14:25:29.893Z,20.50
2018-08-31T14:27:58.330Z,20.50
2018-08-31T14:30:26.909Z,20.60
2018-08-31T14:32:55.287Z,20.70
2018-08-31T14:35:23.694Z,20.80
2018-08-31T14:37:52.115Z,20.90
2018-08-31T14:40:20.526Z,21.00
2018-08-31T14:42:48.881Z,21.00
2018-08-31T14:45:17.298Z,21.10
2018-08-31T14:47:45.736Z,21.20
2018-08-31T14:50:14.164Z,21.30
2018-08-31T14:52:42.545Z,21.30
2018-08-31T14:55:10.957Z,21.30
2018-08-31T14:57:39.407Z,21.30
2018-08-31T15:00:07.825Z,21.30
2018-08-31T15:02:36.278Z,21.20
2018-08-31T15:05:04.686Z,21.20
2018-08-31T15:07:33.052Z,21.10
2018-08-31T15:10:01.472Z,21.20
2018-08-31T15:12:29.840Z,21.20
2018-08-31T15:14:58.225Z,21.20
2018-08-31T15:17:26.654Z,21.10
2018-08-31T15:19:55.036Z,21.00
2018-08-31T15:22:23.410Z,21.00
2018-08-31T15:24:51.792Z,21.10
2018-08-31T15:27:20.178Z,21.10
2018-08-31T15:29:48.564Z,21.10
2018-08-31T15:32:17.077Z,21.10
2018-08-31T15:34:45.508Z,21.10
2018-08-31T15:37:14.038Z,21.10
2018-08-31T15:39:42.433Z,21.10
2018-08-31T15:42:10.903Z,21.10
2018-08-31T15:44:39.259Z,21.10
2018-08-31T15:47:07.650Z,21.20
2018-08-31T15:49:36.123Z,21.30
2018-08-31T15:52:04.469Z,21.40
2018-08-31T15:54:32.853Z,21.60
2018-08-31T15:57:01.259Z,21.70
2018-08-31T15:59:29.640Z,21.90
2018-08-31T16:01:58.048Z,22.00
2018-08-31T16:04:26.411Z,22.20
2018-08-31T16:06:54.824Z,22.40
2018-08-31T16:09:23.253Z,22.60
2018-08-31T16:11:51.682Z,22.60
2018-08-31T16:14:20.053Z,22.60
2018-08-31T16:16:48.469Z,22.60
2018-08-31T16:19:16.845Z,22.40
2018-08-31T16:21:45.332Z,22.30
2018-08-31T16:24:13.955Z,22.10
2018-08-31T16:26:42.421Z,21.90
2018-08-31T16:29:10.801Z,21.80
2018-08-31T16:31:39.266Z,21.60
2018-08-31T16:34:07.939Z,21.40
2018-08-31T16:36:36.347Z,21.30
2018-08-31T16:39:06.195Z,21.10
2018-08-31T16:41:34.632Z,21.00
2018-08-31T16:44:03.017Z,20.80
2018-08-31T16:46:31.418Z,20.80
2018-08-31T16:48:59.832Z,20.70
2018-08-31T16:51:28.250Z,20.60
2018-08-31T16:53:56.653Z,20.50
2018-08-31T16:56:25.245Z,20.40
2018-08-31T16:58:53.638Z,20.40
2018-08-31T17:01:22.036Z,20.30
2018-08-31T17:03:50.458Z,20.30
2018-08-31T17:06:18.914Z,20.20
2018-08-31T17:08:47.324Z,20.20
2018-08-31T17:11:15.778Z,20.20
2018-08-31T17:13:44.175Z,20.20
2018-08-31T17:16:12.591Z,20.20
2018-08-31T17:18:41.111Z,20.10
2018-08-31T17:21:09.625Z,20.10
2018-08-31T17:23:38.190Z,20.10
2018-08-31T17:26:06.658Z,20.10
2018-08-31T17:28:40.491Z,20.00
2018-08-31T17:31:14.229Z,20.00
2018-08-31T17:33:47.889Z,20.00
2018-08-31T17:36:21.588Z,19.90
2018-08-31T17:38:49.992Z,19.90
2018-08-31T17:41:18.390Z,19.80
2018-08-31T17:43:46.794Z,19.70
2018-08-31T17:46:15.241Z,19.70
2018-08-31T17:48:43.665Z,19.50
2018-08-31T17:51:12.089Z,19.50
2018-08-31T17:53:40.556Z,19.40
2018-08-31T17:56:08.973Z,19.40
2018-08-31T17:58:37.388Z,19.40
2018-08-31T18:01:06.314Z,19.40
2018-08-31T18:03:34.726Z,19.30
2018-08-31T18:06:03.087Z,19.20
2018-08-31T18:08:31.538Z,19.20
2018-08-31T18:11:00.023Z,19.10
2018-08-31T18:13:28.950Z,19.10
2018-08-31T18:15:57.423Z,19.00
2018-08-31T18:18:25.773Z,18.90
2018-08-31T18:20:54.300Z,18.90
2018-08-31T18:23:22.698Z,18.90
2018-08-31T18:25:51.142Z,18.80
2018-08-31T18:28:19.478Z,18.80
2018-08-31T18:30:47.841Z,18.80
2018-08-31T18:33:17.070Z,18.70
2018-08-31T18:35:45.646Z,18.60
2018-08-31T18:38:14.038Z,18.50
2018-08-31T18:40:42.407Z,18.50
2018-08-31T18:43:10.807Z,18.40
2018-08-31T18:45:39.226Z,18.30
2018-08-31T18:48:07.605Z,18.30
2018-08-31T18:50:35.962Z,18.20
2018-08-31T18:53:04.472Z,18.10
2018-08-31T18:55:32.858Z,18.10
2018-08-31T18:58:01.941Z,18.00
2018-08-31T19:00:30.410Z,18.00
2018-08-31T19:02:59.845Z,18.00
2018-08-31T19:05:28.209Z,17.90
2018-08-31T19:07:59.523Z,17.90
2018-08-31T19:10:28.258Z,17.90
2018-08-31T19:12:56.709Z,17.80
2018-08-31T19:15:25.053Z,17.70
2018-08-31T19:17:53.534Z,17.70
2018-08-31T19:20:21.928Z,17.60
2018-08-31T19:22:50.298Z,17.50
2018-08-31T19:25:18.677Z,17.50
2018-08-31T19:27:47.054Z,17.50
2018-08-31T19:30:15.445Z,17.40
2018-08-31T19:32:43.813Z,17.40
2018-08-31T19:35:12.225Z,17.30
2018-08-31T19:37:40.600Z,17.30
2018-08-31T19:40:08.991Z,17.30
2018-08-31T19:42:37.340Z,17.20
2018-08-31T19:45:06.843Z,17.20
2018-08-31T19:47:35.262Z,17.10
2018-08-31T19:50:03.687Z,17.10
2018-08-31T19:52:32.023Z,17.00
2018-08-31T19:55:00.749Z,17.00
2018-08-31T19:57:29.241Z,16.90
2018-08-31T19:59:57.645Z,16.90
2018-08-31T20:02:26.065Z,16.80
2018-08-31T20:04:54.469Z,16.70
2018-08-31T20:07:22.833Z,16.70
2018-08-31T20:09:51.212Z,16.70
2018-08-31T20:12:19.589Z,16.60
2018-08-31T20:14:48.013Z,16.50
2018-08-31T20:17:16.389Z,16.50
2018-08-31T20:19:44.795Z,16.40
2018-08-31T20:22:13.410Z,16.30
2018-08-31T20:24:41.818Z,16.20
2018-08-31T20:27:10.208Z,16.20
2018-08-31T20:29:39.676Z,16.10
2018-08-31T20:32:08.048Z,16.00
2018-08-31T20:34:36.418Z,16.00
2018-08-31T20:37:04.839Z,16.00
2018-08-31T20:39:33.317Z,15.90
2018-08-31T20:42:01.696Z,15.80
2018-08-31T20:44:30.177Z,15.80
2018-08-31T20:46:59.704Z,15.80
2018-08-31T20:49:28.102Z,15.70
2018-08-31T20:51:56.462Z,15.70
2018-08-31T20:54:24.825Z,15.70
2018-08-31T20:56:53.210Z,15.60
2018-08-31T20:59:21.581Z,15.50
2018-08-31T21:01:50.007Z,15.50
2018-08-31T21:04:21.051Z,15.50
2018-08-31T21:06:49.893Z,15.50
2018-08-31T21:09:18.248Z,15.40
2018-08-31T21:11:49.412Z,15.40
2018-08-31T21:14:20.245Z,15.40
2018-08-31T21:16:51.047Z,15.30
2018-08-31T21:19:19.680Z,15.30
2018-08-31T21:21:48.402Z,15.30
2018-08-31T21:24:16.761Z,15.20
2018-08-31T21:26:45.184Z,15.20
2018-08-31T21:29:13.701Z,15.20
2018-08-31T21:31:42.289Z,15.10
2018-08-31T21:34:11.235Z,15.10
2018-08-31T21:36:39.786Z,15.00
2018-08-31T21:39:09.140Z,15.00
2018-08-31T21:41:38.879Z,15.00
2018-08-31T21:44:07.498Z,15.00
2018-08-31T21:46:36.107Z,14.90
2018-08-31T21:49:04.746Z,14.90
2018-08-31T21:51:33.563Z,14.90
2018-08-31T21:54:02.109Z,14.90
2018-08-31T21:56:31.505Z,14.80
2018-08-31T21:59:00.130Z,14.80
2018-08-31T22:01:33.983Z,14.80
2018-08-31T22:04:02.860Z,14.80
2018-08-31T22:06:31.673Z,14.80
2018-08-31T22:09:00.111Z,14.70
2018-08-31T22:11:28.832Z,14.70
2018-08-31T22:13:57.380Z,14.70
2018-08-31T22:16:26.069Z,14.70
2018-08-31T22:18:54.768Z,14.60
2018-08-31T22:21:23.504Z,14.60
2018-08-31T22:23:52.115Z,14.50
2018-08-31T22:26:20.996Z,14.50
2018-08-31T22:28:49.593Z,14.50
2018-08-31T22:31:18.165Z,14.40
2018-08-31T22:33:46.872Z,14.40
2018-08-31T22:36:15.652Z,14.40
2018-08-31T22:38:44.305Z,14.30
2018-08-31T22:41:13.122Z,14.30
2018-08-31T22:43:47.091Z,14.30
2018-08-31T22:46:15.636Z,14.20
2018-08-31T22:48:44.302Z,14.20
2018-08-31T22:51:13.241Z,14.20
2018-08-31T22:53:41.853Z,14.20
2018-08-31T22:56:10.193Z,14.10
2018-08-31T22:58:38.599Z,14.10
2018-08-31T23:01:06.991Z,14.10
2018-08-31T23:03:35.367Z,14.10
2018-08-31T23:06:03.720Z,14.00
2018-08-31T23:08:32.144Z,14.00
2018-08-31T23:11:00.531Z,14.00
2018-08-31T23:13:28.929Z,14.00
2018-08-31T23:15:57.305Z,13.90
2018-08-31T23:18:25.689Z,13.90
2018-08-31T23:20:54.045Z,13.80
2018-08-31T23:23:28.249Z,13.80
2018-08-31T23:25:56.604Z,13.70
2018-08-31T23:28:24.995Z,13.70
2018-08-31T23:30:53.476Z,13.70
2018-08-31T23:33:22.124Z,13.70
2018-08-31T23:35:50.924Z,13.60
2018-08-31T23:38:19.564Z,13.60
2018-08-31T23:40:48.169Z,13.50
2018-08-31T23:43:16.801Z,13.50
2018-08-31T23:45:45.416Z,13.40
2018-08-31T23:48:14.083Z,13.40
2018-08-31T23:50:42.814Z,13.40
2018-08-31T23:53:11.403Z,13.40
2018-08-31T23:55:39.983Z,13.30
2018-08-31T23:58:08.853Z,13.30
